createdAt,value
2023-12-12T00:00:09.300Z,24.44
2023-12-12T00:02:35.690Z,24.44
2023-12-12T00:05:02.059Z,24.42
2023-12-12T00:07:28.532Z,24.41
2023-12-12T00:09:54.981Z,24.40
2023-12-12T00:12:21.567Z,24.38
2023-12-12T00:14:47.956Z,24.35
2023-12-12T00:17:14.397Z,24.33
2023-12-12T00:19:41.586Z,24.31
2023-12-12T00:22:08.136Z,24.28
2023-12-12T00:24:34.532Z,24.28
2023-12-12T00:27:00.924Z,24.25
2023-12-12T00:29:27.283Z,24.22
2023-12-12T00:31:53.657Z,24.20
2023-12-12T00:34:20.137Z,24.17
2023-12-12T00:36:46.549Z,24.15
2023-12-12T00:39:12.922Z,24.13
2023-12-12T00:41:39.313Z,24.11
2023-12-12T00:44:05.717Z,24.10
2023-12-12T00:46:32.343Z,24.07
2023-12-12T00:48:58.935Z,24.05
2023-12-12T00:51:25.405Z,24.04
2023-12-12T00:53:51.800Z,24.02
2023-12-12T00:56:18.220Z,24.01
2023-12-12T00:58:44.621Z,23.98
2023-12-12T01:01:15.347Z,23.96
2023-12-12T01:03:42.080Z,23.95
2023-12-12T01:06:08.489Z,23.93
2023-12-12T01:08:34.859Z,23.91
2023-12-12T01:11:02.088Z,23.89
2023-12-12T01:13:28.515Z,23.89
2023-12-12T01:15:54.958Z,23.87
2023-12-12T01:18:21.456Z,23.85
2023-12-12T01:20:47.885Z,23.85
2023-12-12T01:23:14.574Z,23.81
2023-12-12T01:25:41.069Z,23.80
2023-12-12T01:28:07.543Z,23.78
2023-12-12T01:30:35.549Z,23.74
2023-12-12T01:33:03.080Z,23.71
2023-12-12T01:35:29.467Z,23.69
2023-12-12T01:37:55.843Z,23.67
2023-12-12T01:40:22.339Z,23.64
2023-12-12T01:42:48.752Z,23.62
2023-12-12T01:45:17.171Z,23.62
2023-12-12T01:47:44.178Z,23.58
2023-12-12T01:50:10.621Z,23.56
2023-12-12T01:52:37.141Z,23.54
2023-12-12T01:55:03.584Z,23.51
2023-12-12T01:57:30.352Z,23.51
2023-12-12T01:59:56.861Z,23.49
2023-12-12T02:02:23.245Z,23.46
2023-12-12T02:04:49.921Z,23.45
2023-12-12T02:07:17.002Z,23.44
2023-12-12T02:10:21.699Z,23.43
2023-12-12T02:12:48.039Z,23.42
2023-12-12T02:15:16.100Z,23.39
2023-12-12T02:17:42.454Z,23.38
2023-12-12T02:20:08.992Z,23.35
2023-12-12T02:22:35.400Z,23.35
2023-12-12T02:25:01.796Z,23.31
2023-12-12T02:27:28.234Z,23.29
2023-12-12T02:32:20.792Z,23.25
2023-12-12T02:34:47.412Z,23.20
2023-12-12T02:37:13.785Z,23.20
2023-12-12T02:39:40.145Z,23.18
2023-12-12T02:42:06.484Z,23.15
2023-12-12T02:44:32.841Z,23.13
2023-12-12T02:46:59.183Z,23.12
2023-12-12T02:49:25.620Z,23.11
2023-12-12T02:51:52.041Z,23.09
2023-12-12T02:54:18.396Z,23.07
2023-12-12T02:56:44.726Z,23.04
2023-12-12T02:59:11.084Z,23.03
2023-12-12T03:01:37.572Z,23.02
2023-12-12T03:04:04.142Z,23.01
2023-12-12T03:06:30.557Z,23.05
2023-12-12T03:08:56.887Z,23.08
2023-12-12T03:11:23.239Z,23.09
2023-12-12T03:13:49.573Z,23.09
2023-12-12T03:16:15.916Z,23.07
2023-12-12T03:18:42.320Z,23.08
2023-12-12T03:21:08.716Z,23.01
2023-12-12T03:23:35.079Z,23.05
2023-12-12T03:26:09.407Z,23.00
2023-12-12T03:28:36.790Z,22.93
2023-12-12T03:31:04.204Z,22.93
2023-12-12T03:33:30.734Z,22.93
2023-12-12T03:35:57.161Z,22.95
2023-12-12T03:38:25.984Z,22.95
2023-12-12T03:40:52.556Z,22.93
2023-12-12T03:43:19.043Z,22.93
2023-12-12T03:45:45.457Z,22.94
2023-12-12T03:48:12.587Z,22.98
2023-12-12T03:50:39.024Z,22.98
2023-12-12T03:53:05.386Z,22.98
2023-12-12T03:55:31.779Z,22.98
2023-12-12T03:57:58.189Z,22.96
2023-12-12T04:00:24.548Z,22.95
2023-12-12T04:02:51.488Z,22.92
2023-12-12T04:05:17.987Z,22.90
2023-12-12T04:07:44.438Z,22.90
2023-12-12T04:10:11.085Z,22.84
2023-12-12T04:12:37.805Z,22.86
2023-12-12T04:15:04.202Z,22.86
2023-12-12T04:17:31.192Z,22.85
2023-12-12T04:19:57.814Z,22.80
2023-12-12T04:22:24.216Z,22.78
2023-12-12T04:24:50.638Z,22.73
2023-12-12T04:27:17.164Z,22.74
2023-12-12T04:29:43.612Z,22.72
2023-12-12T04:32:09.963Z,22.70
2023-12-12T04:34:36.429Z,22.69
2023-12-12T04:37:02.833Z,22.68
2023-12-12T04:39:29.265Z,22.67
2023-12-12T04:41:55.629Z,22.67
2023-12-12T04:44:22.390Z,22.67
2023-12-12T04:46:48.826Z,22.65
2023-12-12T04:49:15.505Z,22.66
2023-12-12T04:51:41.989Z,22.64
2023-12-12T04:54:08.351Z,22.61
2023-12-12T04:56:34.795Z,22.56
2023-12-12T04:59:01.150Z,22.58
2023-12-12T05:01:28.317Z,22.56
2023-12-12T05:03:54.841Z,22.53
2023-12-12T05:06:22.088Z,22.53
2023-12-12T05:08:48.922Z,22.52
2023-12-12T05:11:15.668Z,22.50
2023-12-12T05:13:42.415Z,22.47
2023-12-12T05:16:20.577Z,22.46
2023-12-12T05:18:55.777Z,22.45
2023-12-12T05:21:23.024Z,22.45
2023-12-12T05:23:50.066Z,22.45
2023-12-12T05:26:16.840Z,22.44
2023-12-12T05:28:43.539Z,22.45
2023-12-12T05:31:10.044Z,22.45
2023-12-12T05:33:36.676Z,22.44
2023-12-12T05:36:03.369Z,22.45
2023-12-12T05:38:29.731Z,22.43
2023-12-12T05:40:57.246Z,22.40
2023-12-12T05:43:23.684Z,22.38
2023-12-12T05:45:50.313Z,22.36
2023-12-12T05:48:16.739Z,22.35
2023-12-12T05:50:43.567Z,22.33
2023-12-12T05:53:09.939Z,22.31
2023-12-12T05:55:36.333Z,22.28
2023-12-12T05:58:02.728Z,22.28
2023-12-12T06:00:29.131Z,22.29
2023-12-12T06:02:55.739Z,22.29
2023-12-12T06:05:22.150Z,22.30
2023-12-12T06:07:48.639Z,22.30
2023-12-12T06:10:15.075Z,22.31
2023-12-12T06:12:41.554Z,22.30
2023-12-12T06:15:09.002Z,22.27
2023-12-12T06:17:40.288Z,22.28
2023-12-12T06:20:08.140Z,22.27
2023-12-12T06:22:35.379Z,22.25
2023-12-12T06:25:03.124Z,22.23
2023-12-12T06:27:30.772Z,22.22
2023-12-12T06:29:57.349Z,22.22
2023-12-12T06:32:23.888Z,22.22
2023-12-12T06:34:50.434Z,22.20
2023-12-12T06:37:17.408Z,22.20
2023-12-12T06:39:43.859Z,22.19
2023-12-12T06:42:10.281Z,22.18
2023-12-12T06:44:37.936Z,22.16
2023-12-12T06:47:04.325Z,22.15
2023-12-12T06:49:30.917Z,22.13
2023-12-12T06:51:57.466Z,22.12
2023-12-12T06:54:23.942Z,22.12
2023-12-12T06:56:50.314Z,22.10
2023-12-12T06:59:16.681Z,22.11
2023-12-12T07:01:43.279Z,22.08
2023-12-12T07:04:10.231Z,22.06
2023-12-12T07:06:36.785Z,22.05
2023-12-12T07:09:03.840Z,22.05
2023-12-12T07:11:30.195Z,22.05
2023-12-12T07:13:58.753Z,22.04
2023-12-12T07:16:25.381Z,22.03
2023-12-12T07:18:51.925Z,22.04
2023-12-12T07:21:18.438Z,22.04
2023-12-12T07:23:44.831Z,22.05
2023-12-12T07:26:14.122Z,22.04
2023-12-12T07:28:40.570Z,22.02
2023-12-12T07:31:07.288Z,22.02
2023-12-12T07:33:33.792Z,22.01
2023-12-12T07:36:00.221Z,22.00
2023-12-12T07:38:26.673Z,21.98
2023-12-12T07:40:53.106Z,21.97
2023-12-12T07:43:19.523Z,21.94
2023-12-12T07:45:45.942Z,21.93
2023-12-12T07:48:12.428Z,21.93
2023-12-12T07:50:38.855Z,21.93
2023-12-12T07:53:05.893Z,21.94
2023-12-12T07:55:32.711Z,21.97
2023-12-12T07:57:59.125Z,21.99
2023-12-12T08:00:27.245Z,22.00
2023-12-12T08:02:53.594Z,21.97
2023-12-12T08:05:20.008Z,21.97
2023-12-12T08:07:46.412Z,21.95
2023-12-12T08:10:12.881Z,21.98
2023-12-12T08:12:39.278Z,21.97
2023-12-12T08:15:05.923Z,21.94
2023-12-12T08:17:32.758Z,21.93
2023-12-12T08:19:59.574Z,21.94
2023-12-12T08:22:26.691Z,21.93
2023-12-12T08:24:54.890Z,21.92
2023-12-12T08:27:21.277Z,21.92
2023-12-12T08:29:48.236Z,21.92
2023-12-12T08:32:14.597Z,21.87
2023-12-12T08:34:40.977Z,21.93
2023-12-12T08:37:07.407Z,21.97
2023-12-12T08:39:33.763Z,21.98
2023-12-12T08:42:00.193Z,21.95
2023-12-12T08:44:26.987Z,22.01
2023-12-12T08:46:53.394Z,22.03
2023-12-12T08:49:20.066Z,22.04
2023-12-12T08:51:46.664Z,22.03
2023-12-12T08:54:13.042Z,22.02
2023-12-12T08:56:39.425Z,21.95
2023-12-12T08:59:05.838Z,21.91
2023-12-12T09:01:32.346Z,21.92
2023-12-12T09:03:58.865Z,21.97
2023-12-12T09:06:25.280Z,21.99
2023-12-12T09:08:51.653Z,22.00
2023-12-12T09:11:18.011Z,22.00
2023-12-12T09:13:44.647Z,22.01
2023-12-12T09:16:11.241Z,22.03
2023-12-12T09:18:38.093Z,22.03
2023-12-12T09:21:04.834Z,22.06
2023-12-12T09:23:32.120Z,22.07
2023-12-12T09:25:58.513Z,22.07
2023-12-12T09:28:24.894Z,22.07
2023-12-12T09:30:51.346Z,22.07
2023-12-12T09:33:17.925Z,22.06
2023-12-12T09:35:44.647Z,22.06
2023-12-12T09:38:11.113Z,22.07
2023-12-12T09:40:37.757Z,22.07
2023-12-12T09:43:04.717Z,22.08
2023-12-12T09:45:32.197Z,22.08
2023-12-12T09:47:59.078Z,22.08
2023-12-12T09:50:25.504Z,22.08
2023-12-12T09:52:52.970Z,22.09
2023-12-12T09:55:20.382Z,22.09
2023-12-12T09:57:47.335Z,22.08
2023-12-12T10:00:15.564Z,22.09
2023-12-12T10:02:42.003Z,22.09
2023-12-12T10:05:11.522Z,22.09
2023-12-12T10:07:38.399Z,22.12
2023-12-12T10:10:08.447Z,22.09
2023-12-12T10:12:34.883Z,22.09
2023-12-12T10:15:01.864Z,22.08
2023-12-12T10:17:28.752Z,22.10
2023-12-12T10:19:58.569Z,22.07
2023-12-12T10:22:26.900Z,22.06
2023-12-12T10:24:54.128Z,22.05
2023-12-12T10:27:20.819Z,22.04
2023-12-12T10:29:47.183Z,22.05
2023-12-12T10:32:14.500Z,22.04
2023-12-12T10:34:47.471Z,22.05
2023-12-12T10:37:17.218Z,22.05
2023-12-12T10:39:45.004Z,22.04
2023-12-12T10:42:11.385Z,22.04
2023-12-12T10:44:38.432Z,22.04
2023-12-12T10:47:06.152Z,22.05
2023-12-12T10:49:33.403Z,22.06
2023-12-12T10:52:04.897Z,22.05
2023-12-12T10:54:32.886Z,22.06
2023-12-12T10:56:59.250Z,22.07
2023-12-12T10:59:57.328Z,22.06
2023-12-12T11:02:11.960Z,22.08
2023-12-12T11:04:38.352Z,22.07
2023-12-12T11:07:04.790Z,22.08
2023-12-12T11:09:31.177Z,22.08
2023-12-12T11:11:57.636Z,22.07
2023-12-12T11:14:24.770Z,22.07
2023-12-12T11:16:51.898Z,22.05
2023-12-12T11:19:18.607Z,22.05
2023-12-12T11:21:51.594Z,22.03
2023-12-12T11:24:18.817Z,22.01
2023-12-12T11:26:46.581Z,22.00
2023-12-12T11:29:15.043Z,21.98
2023-12-12T11:31:57.602Z,21.97
2023-12-12T11:34:24.367Z,21.95
2023-12-12T11:36:54.581Z,21.94
2023-12-12T11:39:23.765Z,21.95
2023-12-12T11:41:51.163Z,21.94
2023-12-12T11:44:18.842Z,21.94
2023-12-12T11:46:45.210Z,21.94
2023-12-12T11:49:18.273Z,21.94
2023-12-12T11:51:47.596Z,21.93
2023-12-12T11:54:21.820Z,21.92
2023-12-12T11:56:48.979Z,21.94
2023-12-12T11:59:24.511Z,21.94
2023-12-12T12:01:51.200Z,21.93
2023-12-12T12:04:17.769Z,22.00
2023-12-12T12:06:44.405Z,22.03
2023-12-12T12:09:11.772Z,22.08
2023-12-12T12:11:38.540Z,22.15
2023-12-12T12:14:04.925Z,22.28
2023-12-12T12:16:31.362Z,22.39
2023-12-12T12:18:57.849Z,22.44
2023-12-12T12:21:24.759Z,22.46
2023-12-12T12:23:51.141Z,22.51
2023-12-12T12:26:17.637Z,22.51
2023-12-12T12:28:44.020Z,22.53
2023-12-12T12:31:10.577Z,22.52
2023-12-12T12:33:37.341Z,22.48
2023-12-12T12:36:03.777Z,22.38
2023-12-12T12:38:30.435Z,22.42
2023-12-12T12:40:56.823Z,22.44
2023-12-12T12:43:26.014Z,22.54
2023-12-12T12:45:52.615Z,22.61
2023-12-12T12:48:20.962Z,22.68
2023-12-12T12:50:48.241Z,22.82
2023-12-12T12:53:14.763Z,22.90
2023-12-12T12:55:42.016Z,22.95
2023-12-12T12:58:10.879Z,22.94
2023-12-12T13:00:37.441Z,22.92
2023-12-12T13:03:06.607Z,22.93
2023-12-12T13:05:32.989Z,22.90
2023-12-12T13:07:59.387Z,22.90
2023-12-12T13:10:38.917Z,22.88
2023-12-12T13:13:10.533Z,22.83
2023-12-12T13:15:37.222Z,22.74
2023-12-12T13:18:03.774Z,22.68
2023-12-12T13:20:30.219Z,22.70
2023-12-12T13:22:56.668Z,22.71
2023-12-12T13:25:23.177Z,22.73
2023-12-12T13:27:49.559Z,22.75
2023-12-12T13:30:16.324Z,22.76
2023-12-12T13:32:43.600Z,22.78
2023-12-12T13:35:18.633Z,22.80
2023-12-12T13:37:54.238Z,22.84
2023-12-12T13:40:23.275Z,22.85
2023-12-12T13:42:50.777Z,22.84
2023-12-12T13:45:18.339Z,22.81
2023-12-12T13:47:44.925Z,22.78
2023-12-12T13:50:11.607Z,22.75
2023-12-12T13:52:38.247Z,22.74
2023-12-12T13:55:04.786Z,22.72
2023-12-12T13:57:31.544Z,22.70
2023-12-12T13:59:58.149Z,22.67
2023-12-12T14:02:30.251Z,22.68
2023-12-12T14:05:02.536Z,22.73
2023-12-12T14:07:29.105Z,22.80
2023-12-12T14:09:55.518Z,22.82
2023-12-12T14:12:22.138Z,22.83
2023-12-12T14:14:48.527Z,22.85
2023-12-12T14:17:15.563Z,22.86
2023-12-12T14:19:42.162Z,22.82
2023-12-12T14:22:10.010Z,22.79
2023-12-12T14:24:38.458Z,22.78
2023-12-12T14:27:07.003Z,22.74
2023-12-12T14:29:33.441Z,22.74
2023-12-12T14:31:59.904Z,22.69
2023-12-12T14:34:26.374Z,22.70
2023-12-12T14:36:52.955Z,22.75
2023-12-12T14:39:19.754Z,22.75
2023-12-12T14:41:46.147Z,22.84
2023-12-12T14:44:12.595Z,22.84
2023-12-12T14:46:39.009Z,22.83
2023-12-12T14:49:06.434Z,22.77
2023-12-12T14:51:32.921Z,22.78
2023-12-12T14:54:00.145Z,22.78
2023-12-12T14:56:26.597Z,22.72
2023-12-12T14:58:53.569Z,22.66
2023-12-12T15:01:20.176Z,22.68
2023-12-12T15:03:46.710Z,22.70
2023-12-12T15:06:13.244Z,22.77
2023-12-12T15:08:39.663Z,22.83
2023-12-12T15:11:06.131Z,22.87
2023-12-12T15:13:32.577Z,22.88
2023-12-12T15:15:59.050Z,22.87
2023-12-12T15:18:25.564Z,22.86
2023-12-12T15:20:52.119Z,22.83
2023-12-12T15:23:18.509Z,22.81
2023-12-12T15:25:45.528Z,22.79
2023-12-12T15:28:24.660Z,22.77
2023-12-12T15:30:54.133Z,22.75
2023-12-12T15:33:20.851Z,22.74
2023-12-12T15:35:47.414Z,22.69
2023-12-12T15:38:13.828Z,22.67
2023-12-12T15:40:40.352Z,22.66
2023-12-12T15:43:09.482Z,22.70
2023-12-12T15:45:36.459Z,22.74
2023-12-12T15:48:02.922Z,22.82
2023-12-12T15:50:29.416Z,22.81
2023-12-12T15:52:55.790Z,22.81
2023-12-12T15:55:22.240Z,22.79
2023-12-12T15:57:48.804Z,22.82
2023-12-12T16:00:17.997Z,22.77
2023-12-12T16:02:44.502Z,22.76
2023-12-12T16:05:11.114Z,22.75
2023-12-12T16:07:38.135Z,22.78
2023-12-12T16:10:08.408Z,22.89
2023-12-12T16:12:35.875Z,23.10
2023-12-12T16:15:05.927Z,23.40
2023-12-12T16:17:35.490Z,23.69
2023-12-12T16:20:05.149Z,23.98
2023-12-12T16:22:32.414Z,24.18
2023-12-12T16:24:58.968Z,24.34
2023-12-12T16:27:25.347Z,24.47
2023-12-12T16:29:51.833Z,24.51
2023-12-12T16:32:18.856Z,24.53
2023-12-12T16:34:45.418Z,24.54
2023-12-12T16:37:12.103Z,24.69
2023-12-12T16:39:38.492Z,24.72
2023-12-12T16:42:08.996Z,24.73
2023-12-12T16:44:35.344Z,24.80
2023-12-12T16:47:01.758Z,24.82
2023-12-12T16:49:28.335Z,24.83
2023-12-12T16:51:54.795Z,24.86
2023-12-12T16:54:21.155Z,24.84
2023-12-12T16:56:47.523Z,24.74
2023-12-12T16:59:14.464Z,24.82
2023-12-12T17:01:40.879Z,24.78
2023-12-12T17:04:07.729Z,24.72
2023-12-12T17:06:34.287Z,24.66
2023-12-12T17:09:00.657Z,24.61
2023-12-12T17:11:27.100Z,24.60
2023-12-12T17:13:54.348Z,24.57
2023-12-12T17:16:20.793Z,24.52
2023-12-12T17:18:47.303Z,24.56
2023-12-12T17:21:13.763Z,24.57
2023-12-12T17:23:40.144Z,24.62
2023-12-12T17:26:06.595Z,24.73
2023-12-12T17:28:33.094Z,24.71
2023-12-12T17:31:02.703Z,24.70
2023-12-12T17:33:29.331Z,24.74
2023-12-12T17:35:55.714Z,24.72
2023-12-12T17:38:22.082Z,24.76
2023-12-12T17:40:48.625Z,24.71
2023-12-12T17:43:15.070Z,24.73
2023-12-12T17:45:41.461Z,24.82
2023-12-12T17:48:07.869Z,24.77
2023-12-12T17:50:34.260Z,24.76
2023-12-12T17:53:04.962Z,24.70
2023-12-12T17:55:31.937Z,24.72
2023-12-12T17:57:58.333Z,24.70
2023-12-12T18:00:24.680Z,24.69
2023-12-12T18:02:51.095Z,24.67
2023-12-12T18:05:17.632Z,24.66
2023-12-12T18:07:44.227Z,24.68
2023-12-12T18:10:11.165Z,24.66
2023-12-12T18:12:37.557Z,24.66
2023-12-12T18:15:04.047Z,24.67
2023-12-12T18:17:30.646Z,24.66
2023-12-12T18:19:57.376Z,24.65
2023-12-12T18:22:23.897Z,24.67
2023-12-12T18:24:50.229Z,24.70
2023-12-12T18:27:16.599Z,24.76
2023-12-12T18:29:43.026Z,24.70
2023-12-12T18:32:09.432Z,24.64
2023-12-12T18:34:35.887Z,24.66
2023-12-12T18:37:02.306Z,24.65
2023-12-12T18:39:28.685Z,24.61
2023-12-12T18:41:56.751Z,24.61
2023-12-12T18:44:23.129Z,24.59
2023-12-12T18:46:49.691Z,24.59
2023-12-12T18:49:16.800Z,24.55
2023-12-12T18:51:43.759Z,24.54
2023-12-12T18:54:11.076Z,24.56
2023-12-12T18:56:38.788Z,24.55
2023-12-12T18:59:05.744Z,24.51
2023-12-12T19:01:32.232Z,24.49
2023-12-12T19:03:58.997Z,24.45
2023-12-12T19:06:25.346Z,24.47
2023-12-12T19:08:52.769Z,24.46
2023-12-12T19:11:23.209Z,24.38
2023-12-12T19:13:49.702Z,24.37
2023-12-12T19:16:17.264Z,24.34
2023-12-12T19:18:43.826Z,24.33
2023-12-12T19:21:11.366Z,24.31
2023-12-12T19:23:38.669Z,24.31
2023-12-12T19:26:05.115Z,24.31
2023-12-12T19:28:31.489Z,24.31
2023-12-12T19:30:57.999Z,24.35
2023-12-12T19:33:25.769Z,24.36
2023-12-12T19:35:52.208Z,24.36
2023-12-12T19:38:18.536Z,24.35
2023-12-12T19:40:44.914Z,24.32
2023-12-12T19:43:12.425Z,24.35
2023-12-12T19:45:38.907Z,24.29
2023-12-12T19:48:05.363Z,24.29
2023-12-12T19:50:31.832Z,24.25
2023-12-12T19:52:58.883Z,24.22
2023-12-12T19:55:25.652Z,24.23
2023-12-12T19:57:52.079Z,24.27
2023-12-12T20:00:18.490Z,24.32
2023-12-12T20:02:44.855Z,24.52
2023-12-12T20:05:11.271Z,24.52
2023-12-12T20:07:38.367Z,24.62
2023-12-12T20:10:05.925Z,24.67
2023-12-12T20:12:33.182Z,24.77
2023-12-12T20:14:59.553Z,24.74
2023-12-12T20:17:26.097Z,24.75
2023-12-12T20:19:52.521Z,24.78
2023-12-12T20:22:21.994Z,24.81
2023-12-12T20:24:48.781Z,24.85
2023-12-12T20:27:15.216Z,24.88
2023-12-12T20:29:41.586Z,24.89
2023-12-12T20:32:07.986Z,24.93
2023-12-12T20:34:34.391Z,24.96
2023-12-12T20:37:00.752Z,24.96
2023-12-12T20:39:27.146Z,24.98
2023-12-12T20:41:53.528Z,25.06
2023-12-12T20:44:19.870Z,25.05
2023-12-12T20:46:46.345Z,25.09
2023-12-12T20:49:13.085Z,25.11
2023-12-12T20:51:45.316Z,25.11
2023-12-12T20:54:12.418Z,25.12
2023-12-12T20:56:42.201Z,25.27
2023-12-12T20:59:08.704Z,25.14
2023-12-12T21:01:35.070Z,25.11
2023-12-12T21:04:01.473Z,25.08
2023-12-12T21:06:27.864Z,25.11
2023-12-12T21:08:54.257Z,25.08
2023-12-12T21:11:20.860Z,25.09
2023-12-12T21:13:47.287Z,25.06
2023-12-12T21:16:17.290Z,25.04
2023-12-12T21:18:43.909Z,25.04
2023-12-12T21:21:10.322Z,25.00
2023-12-12T21:23:36.688Z,25.00
2023-12-12T21:26:04.090Z,24.98
2023-12-12T21:28:31.475Z,24.97
2023-12-12T21:30:57.941Z,24.95
2023-12-12T21:33:24.425Z,24.94
2023-12-12T21:35:51.906Z,24.92
2023-12-12T21:38:22.360Z,24.91
2023-12-12T21:40:48.789Z,24.89
2023-12-12T21:43:15.323Z,24.90
2023-12-12T21:45:41.676Z,24.86
2023-12-12T21:48:09.195Z,24.84
2023-12-12T21:50:35.693Z,24.79
2023-12-12T21:53:02.193Z,24.80
2023-12-12T21:55:28.668Z,24.82
2023-12-12T21:57:55.041Z,24.82
2023-12-12T22:00:21.855Z,24.80
2023-12-12T22:02:48.222Z,24.80
2023-12-12T22:05:14.599Z,24.78
2023-12-12T22:07:41.025Z,24.77
2023-12-12T22:10:07.788Z,24.76
2023-12-12T22:12:34.263Z,24.75
2023-12-12T22:15:00.685Z,24.73
2023-12-12T22:17:27.166Z,24.74
2023-12-12T22:20:02.058Z,24.69
2023-12-12T22:22:32.992Z,24.69
2023-12-12T22:24:59.520Z,24.65
2023-12-12T22:27:25.966Z,24.64
2023-12-12T22:29:52.347Z,24.65
2023-12-12T22:32:18.737Z,24.62
2023-12-12T22:34:45.195Z,24.59
2023-12-12T22:37:11.870Z,24.55
2023-12-12T22:39:38.276Z,24.47
2023-12-12T22:42:04.749Z,24.44
2023-12-12T22:44:31.201Z,24.43
2023-12-12T22:46:57.632Z,24.42
2023-12-12T22:49:24.265Z,24.41
2023-12-12T22:51:50.721Z,24.39
2023-12-12T22:54:17.101Z,24.38
2023-12-12T22:56:43.484Z,24.38
2023-12-12T22:59:10.125Z,24.38
2023-12-12T23:01:41.438Z,24.36
2023-12-12T23:04:08.035Z,24.33
2023-12-12T23:06:34.461Z,24.32
2023-12-12T23:09:00.909Z,24.30
2023-12-12T23:11:27.361Z,24.27
2023-12-12T23:13:53.793Z,24.27
2023-12-12T23:16:20.346Z,24.23
2023-12-12T23:18:47.038Z,24.20
2023-12-12T23:21:13.434Z,24.18
2023-12-12T23:23:39.944Z,24.14
2023-12-12T23:26:06.292Z,24.14
2023-12-12T23:28:32.713Z,24.12
2023-12-12T23:31:05.770Z,24.10
2023-12-12T23:33:36.434Z,24.07
2023-12-12T23:36:03.847Z,24.06
2023-12-12T23:38:30.275Z,24.05
2023-12-12T23:40:56.784Z,24.01
2023-12-12T23:43:23.275Z,24.01
2023-12-12T23:45:51.013Z,23.97
2023-12-12T23:48:17.520Z,23.97
2023-12-12T23:50:43.951Z,23.94
2023-12-12T23:53:10.301Z,23.93
2023-12-12T23:55:36.811Z,23.93
2023-12-12T23:58:05.762Z,23.93
